createdAt,value
2019-06-01T00:00:11.264Z,96.20
2019-06-01T00:02:38.539Z,96.40
2019-06-01T00:05:14.062Z,96.50
2019-06-01T00:07:52.006Z,96.60
2019-06-01T00:10:23.441Z,96.70
2019-06-01T00:12:52.630Z,96.80
2019-06-01T00:15:30.543Z,96.80
2019-06-01T00:17:59.106Z,96.70
2019-06-01T00:20:34.927Z,96.90
2019-06-01T00:23:05.244Z,96.80
2019-06-01T00:25:40.412Z,97.10
2019-06-01T00:28:17.910Z,97.20
2019-06-01T00:30:52.534Z,97.20
2019-06-01T00:33:29.023Z,97.30
2019-06-01T00:35:59.713Z,97.30
2019-06-01T00:41:19.866Z,97.60
2019-06-01T00:43:48.821Z,97.70
2019-06-01T00:46:17.566Z,97.60
2019-06-01T00:48:46.188Z,97.80
2019-06-01T00:51:14.758Z,97.80
2019-06-01T00:53:43.421Z,98.10
2019-06-01T00:56:11.949Z,98.30
2019-06-01T00:58:40.502Z,98.20
2019-06-01T01:01:09.150Z,98.40
2019-06-01T01:03:37.770Z,98.20
2019-06-01T01:06:06.349Z,98.70
2019-06-01T01:08:34.899Z,99.00
2019-06-01T01:11:03.540Z,98.90
2019-06-01T01:13:32.096Z,99.00
2019-06-01T01:16:01.139Z,99.10
2019-06-01T01:18:29.761Z,99.10
2019-06-01T01:20:58.409Z,99.00
2019-06-01T01:23:26.967Z,98.90
2019-06-01T01:25:56.584Z,98.80
2019-06-01T01:28:25.461Z,98.80
2019-06-01T01:31:06.817Z,98.80
2019-06-01T01:33:24.153Z,99.00
2019-06-01T01:35:54.088Z,98.80
2019-06-01T01:38:22.801Z,99.40
2019-06-01T01:40:52.112Z,99.90
2019-06-01T01:43:20.749Z,99.90
2019-06-01T01:45:50.546Z,99.70
2019-06-01T01:48:19.272Z,99.90
2019-06-01T01:50:47.751Z,99.70
2019-06-01T01:53:16.329Z,99.70
2019-06-01T01:55:44.878Z,99.60
2019-06-01T01:58:13.483Z,99.70
2019-06-01T02:00:46.797Z,99.60
2019-06-01T02:03:15.614Z,99.70
2019-06-01T02:05:44.267Z,99.70
2019-06-01T02:08:13.034Z,99.90
2019-06-01T02:10:41.647Z,99.90
2019-06-01T02:13:10.206Z,99.90
2019-06-01T02:15:40.974Z,99.90
2019-06-01T02:18:09.777Z,99.90
2019-06-01T02:20:38.328Z,99.90
2019-06-01T02:23:07.042Z,99.90
2019-06-01T02:25:35.916Z,99.90
2019-06-01T02:28:05.979Z,99.90
2019-06-01T02:30:34.456Z,99.90
2019-06-01T02:33:04.599Z,99.90
2019-06-01T02:35:33.547Z,99.90
2019-06-01T02:38:03.022Z,99.90
2019-06-01T02:40:32.506Z,99.90
2019-06-01T02:43:01.570Z,99.90
2019-06-01T02:45:31.511Z,99.90
2019-06-01T02:48:01.764Z,99.90
2019-06-01T02:50:30.346Z,99.90
2019-06-01T02:52:59.423Z,99.90
2019-06-01T02:55:28.048Z,99.90
2019-06-01T02:57:56.605Z,99.90
2019-06-01T03:00:48.000Z,99.90
2019-06-01T03:03:18.119Z,99.90
2019-06-01T03:05:48.032Z,99.90
2019-06-01T03:08:18.842Z,99.90
2019-06-01T03:10:50.267Z,99.90
2019-06-01T03:13:21.686Z,99.90
2019-06-01T03:15:53.307Z,99.90
2019-06-01T03:18:23.428Z,99.90
2019-06-01T03:20:53.972Z,99.90
2019-06-01T03:23:24.320Z,99.90
2019-06-01T03:25:54.506Z,99.90
2019-06-01T03:28:25.018Z,99.90
2019-06-01T03:30:53.585Z,99.90
2019-06-01T03:33:22.141Z,99.90
2019-06-01T03:35:50.775Z,99.90
2019-06-01T03:38:19.311Z,99.90
2019-06-01T03:40:47.793Z,99.90
2019-06-01T03:43:17.205Z,99.90
2019-06-01T03:45:45.673Z,99.90
2019-06-01T03:48:14.229Z,99.90
2019-06-01T03:50:42.706Z,99.90
2019-06-01T03:53:12.195Z,99.90
2019-06-01T03:55:40.816Z,99.90
2019-06-01T03:58:09.670Z,99.90
2019-06-01T04:00:38.200Z,99.90
2019-06-01T04:03:07.193Z,99.90
2019-06-01T04:05:35.794Z,99.90
2019-06-01T04:08:05.519Z,99.90
2019-06-01T04:10:34.189Z,98.40
2019-06-01T04:13:03.521Z,96.00
2019-06-01T04:15:32.328Z,92.90
2019-06-01T04:18:01.910Z,90.40
2019-06-01T04:20:30.580Z,89.30
2019-06-01T04:22:59.052Z,90.30
2019-06-01T04:25:29.257Z,91.10
2019-06-01T04:27:57.808Z,88.90
2019-06-01T04:30:27.554Z,71.70
2019-06-01T04:32:56.025Z,71.20
2019-06-01T04:35:24.590Z,59.10
2019-06-01T04:37:53.164Z,59.40
2019-06-01T04:40:21.737Z,56.40
2019-06-01T04:42:50.281Z,53.60
2019-06-01T04:45:18.863Z,52.20
2019-06-01T04:47:47.400Z,51.90
2019-06-01T04:50:16.042Z,53.70
2019-06-01T04:52:44.580Z,54.60
2019-06-01T04:55:13.155Z,55.70
2019-06-01T04:57:41.693Z,56.80
2019-06-01T05:00:25.116Z,59.50
2019-06-01T05:02:42.052Z,65.50
2019-06-01T05:05:11.271Z,68.60
2019-06-01T05:07:40.000Z,69.90
2019-06-01T05:10:09.623Z,69.50
2019-06-01T05:12:38.165Z,69.20
2019-06-01T05:15:09.893Z,69.80
2019-06-01T05:17:38.600Z,69.80
2019-06-01T05:20:08.311Z,70.70
2019-06-01T05:22:36.929Z,70.20
2019-06-01T05:25:07.089Z,69.00
2019-06-01T05:27:35.656Z,68.10
2019-06-01T05:30:07.326Z,65.10
2019-06-01T05:32:36.046Z,64.20
2019-06-01T05:35:07.593Z,62.20
2019-06-01T05:37:36.357Z,61.50
2019-06-01T05:40:10.584Z,59.90
2019-06-01T05:42:39.192Z,61.30
2019-06-01T05:45:09.121Z,60.00
2019-06-01T05:47:37.993Z,59.30
2019-06-01T05:50:10.688Z,59.30
2019-06-01T05:52:39.502Z,59.20
2019-06-01T05:55:08.535Z,59.10
2019-06-01T05:57:37.146Z,59.50
2019-06-01T06:00:10.882Z,60.20
2019-06-01T06:02:39.631Z,59.70
2019-06-01T06:05:10.505Z,59.70
2019-06-01T06:07:39.196Z,58.60
2019-06-01T06:10:08.448Z,58.10
2019-06-01T06:12:37.130Z,57.00
2019-06-01T06:15:07.729Z,55.50
2019-06-01T06:17:36.272Z,71.50
2019-06-01T06:20:06.322Z,58.10
2019-06-01T06:22:34.869Z,57.80
2019-06-01T06:25:03.870Z,57.70
2019-06-01T06:27:32.453Z,91.10
2019-06-01T06:30:01.001Z,57.40
2019-06-01T06:32:29.573Z,57.70
2019-06-01T06:34:58.040Z,57.70
2019-06-01T06:37:26.616Z,57.20
2019-06-01T06:39:55.164Z,57.70
2019-06-01T06:42:24.455Z,55.70
2019-06-01T06:44:53.085Z,54.30
2019-06-01T06:47:22.905Z,54.90
2019-06-01T06:49:51.602Z,54.40
2019-06-01T06:52:21.286Z,54.10
2019-06-01T06:54:50.093Z,55.00
2019-06-01T06:57:18.658Z,53.90
2019-06-01T06:59:47.400Z,55.70
2019-06-01T07:02:16.760Z,53.00
2019-06-01T07:04:45.449Z,53.00
2019-06-01T07:07:14.038Z,52.10
2019-06-01T07:09:42.588Z,52.60
2019-06-01T07:12:11.094Z,53.90
2019-06-01T07:14:39.631Z,53.20
2019-06-01T07:17:08.200Z,53.10
2019-06-01T07:19:36.677Z,56.30
2019-06-01T07:22:05.269Z,57.10
2019-06-01T07:24:33.806Z,55.00
2019-06-01T07:27:02.558Z,50.70
2019-06-01T07:29:32.380Z,51.10
2019-06-01T07:32:01.070Z,49.60
2019-06-01T07:34:39.758Z,49.20
2019-06-01T07:36:59.991Z,48.00
2019-06-01T07:39:34.613Z,49.80
2019-06-01T07:42:03.453Z,49.00
2019-06-01T07:44:33.249Z,46.90
2019-06-01T07:47:02.141Z,48.00
2019-06-01T07:49:31.202Z,47.00
2019-06-01T07:52:11.779Z,47.50
2019-06-01T07:54:30.026Z,48.30
2019-06-01T07:56:58.586Z,47.40
2019-06-01T07:59:28.310Z,48.40
2019-06-01T08:01:57.710Z,53.20
2019-06-01T08:04:28.097Z,47.30
2019-06-01T08:06:56.511Z,46.00
2019-06-01T08:09:26.525Z,46.60
2019-06-01T08:11:55.480Z,43.90
2019-06-01T08:14:24.517Z,43.90
2019-06-01T08:16:53.112Z,46.70
2019-06-01T08:19:22.061Z,46.40
2019-06-01T08:21:51.485Z,47.60
2019-06-01T08:24:20.034Z,44.00
2019-06-01T08:26:48.549Z,43.40
2019-06-01T08:29:17.098Z,43.60
2019-06-01T08:31:45.593Z,44.50
2019-06-01T08:34:14.145Z,44.90
2019-06-01T08:36:42.634Z,44.20
2019-06-01T08:39:11.116Z,43.90
2019-06-01T08:41:39.656Z,45.90
2019-06-01T08:44:08.661Z,51.50
2019-06-01T08:46:37.117Z,47.10
2019-06-01T08:49:05.752Z,46.90
2019-06-01T08:51:34.325Z,44.40
2019-06-01T08:54:02.885Z,44.30
2019-06-01T08:56:32.287Z,48.40
2019-06-01T08:59:01.036Z,46.30
2019-06-01T09:01:30.583Z,44.70
2019-06-01T09:03:59.205Z,43.30
2019-06-01T09:06:29.043Z,48.40
2019-06-01T09:08:57.625Z,42.40
2019-06-01T09:11:27.031Z,40.70
2019-06-01T09:13:55.628Z,43.90
2019-06-01T09:16:25.506Z,42.40
2019-06-01T09:18:54.144Z,43.60
2019-06-01T09:21:22.633Z,44.70
2019-06-01T09:23:51.144Z,46.30
2019-06-01T09:26:19.841Z,42.20
2019-06-01T09:28:48.408Z,42.70
2019-06-01T09:31:18.210Z,42.30
2019-06-01T09:33:46.776Z,41.30
2019-06-01T09:36:15.250Z,41.00
2019-06-01T09:38:43.834Z,45.50
2019-06-01T09:41:12.458Z,42.70
2019-06-01T09:43:41.096Z,42.90
2019-06-01T09:46:09.632Z,43.00
2019-06-01T09:48:38.209Z,44.80
2019-06-01T09:51:06.771Z,41.60
2019-06-01T09:53:36.117Z,43.40
2019-06-01T09:56:05.466Z,43.70
2019-06-01T09:58:34.565Z,43.90
2019-06-01T10:01:03.313Z,43.70
2019-06-01T10:03:32.434Z,40.80
2019-06-01T10:06:02.417Z,41.60
2019-06-01T10:08:32.614Z,45.20
2019-06-01T10:11:01.494Z,46.10
2019-06-01T10:13:30.432Z,41.70
2019-06-01T10:15:59.037Z,41.90
2019-06-01T10:18:27.550Z,40.20
2019-06-01T10:20:56.030Z,39.00
2019-06-01T10:23:24.637Z,43.10
2019-06-01T10:25:53.172Z,40.40
2019-06-01T10:28:21.660Z,41.10
2019-06-01T10:30:50.129Z,41.90
2019-06-01T10:33:18.616Z,42.30
2019-06-01T10:35:47.122Z,41.70
2019-06-01T10:38:15.598Z,44.10
2019-06-01T10:40:44.166Z,41.50
2019-06-01T10:43:12.665Z,38.40
2019-06-01T10:45:41.993Z,38.20
2019-06-01T10:48:10.745Z,43.30
2019-06-01T10:50:40.604Z,39.50
2019-06-01T10:53:09.256Z,39.90
2019-06-01T10:55:38.361Z,41.30
2019-06-01T10:58:08.280Z,43.50
2019-06-01T11:00:42.120Z,41.10
2019-06-01T11:03:07.112Z,39.70
2019-06-01T11:05:36.739Z,39.20
2019-06-01T11:08:05.412Z,39.10
2019-06-01T11:10:34.862Z,42.30
2019-06-01T11:13:03.605Z,38.10
2019-06-01T11:15:32.917Z,40.70
2019-06-01T11:18:01.623Z,35.30
2019-06-01T11:20:30.184Z,37.40
2019-06-01T11:22:59.828Z,37.10
2019-06-01T11:25:28.409Z,34.80
2019-06-01T11:27:56.973Z,38.00
2019-06-01T11:30:25.696Z,38.20
2019-06-01T11:32:54.275Z,48.70
2019-06-01T11:35:22.841Z,41.10
2019-06-01T11:37:51.385Z,39.30
2019-06-01T11:40:19.889Z,40.90
2019-06-01T11:42:48.457Z,43.50
2019-06-01T11:45:17.036Z,40.00
2019-06-01T11:47:45.599Z,41.70
2019-06-01T11:50:14.416Z,39.20
2019-06-01T11:52:43.251Z,41.10
2019-06-01T11:55:12.810Z,36.70
2019-06-01T11:57:41.596Z,54.40
2019-06-01T12:00:14.813Z,37.10
2019-06-01T12:02:43.836Z,36.20
2019-06-01T12:05:12.928Z,40.30
2019-06-01T12:07:41.932Z,40.00
2019-06-01T12:10:12.265Z,42.20
2019-06-01T12:12:42.226Z,39.00
2019-06-01T12:15:11.477Z,38.30
2019-06-01T12:17:40.656Z,43.50
2019-06-01T12:20:09.930Z,34.40
2019-06-01T12:22:38.780Z,33.90
2019-06-01T12:25:07.519Z,35.60
2019-06-01T12:27:37.191Z,39.60
2019-06-01T12:30:08.311Z,41.80
2019-06-01T12:32:37.849Z,47.30
2019-06-01T12:35:08.306Z,43.40
2019-06-01T12:37:56.163Z,43.60
2019-06-01T12:40:07.881Z,43.60
2019-06-01T12:42:36.490Z,49.10
2019-06-01T12:45:10.372Z,41.20
2019-06-01T12:47:39.902Z,41.90
2019-06-01T12:50:08.903Z,37.10
2019-06-01T12:52:37.507Z,35.20
2019-06-01T12:55:06.756Z,35.60
2019-06-01T12:57:35.356Z,34.50
2019-06-01T13:00:05.453Z,37.30
2019-06-01T13:02:33.953Z,34.70
2019-06-01T13:05:02.419Z,34.60
2019-06-01T13:07:30.992Z,33.90
2019-06-01T13:09:59.611Z,34.70
2019-06-01T13:12:28.187Z,36.10
2019-06-01T13:14:56.754Z,35.40
2019-06-01T13:17:25.339Z,37.70
2019-06-01T13:19:53.899Z,37.70
2019-06-01T13:22:22.833Z,36.30
2019-06-01T13:24:52.054Z,36.50
2019-06-01T13:27:20.857Z,35.80
2019-06-01T13:29:50.187Z,35.90
2019-06-01T13:32:18.918Z,32.60
2019-06-01T13:34:47.552Z,34.50
2019-06-01T13:37:16.114Z,35.20
2019-06-01T13:39:45.185Z,39.80
2019-06-01T13:42:14.885Z,36.70
2019-06-01T13:44:43.460Z,38.00
2019-06-01T13:47:11.961Z,36.10
2019-06-01T13:49:40.544Z,35.20
2019-06-01T13:52:11.340Z,33.40
2019-06-01T13:54:40.308Z,33.90
2019-06-01T13:57:08.941Z,33.60
2019-06-01T13:59:37.496Z,34.00
2019-06-01T14:02:06.333Z,35.70
2019-06-01T14:04:34.881Z,35.80
2019-06-01T14:07:03.387Z,36.10
2019-06-01T14:09:31.961Z,34.00
2019-06-01T14:12:00.530Z,31.70
2019-06-01T14:14:28.999Z,34.50
2019-06-01T14:16:57.496Z,33.90
2019-06-01T14:19:25.970Z,34.00
2019-06-01T14:21:55.702Z,36.30
2019-06-01T14:24:24.421Z,38.80
2019-06-01T14:26:54.248Z,39.00
2019-06-01T14:29:22.929Z,40.60
2019-06-01T14:31:53.517Z,40.20
2019-06-01T14:34:21.715Z,41.70
2019-06-01T14:36:50.536Z,40.90
2019-06-01T14:39:19.328Z,40.10
2019-06-01T14:41:48.910Z,37.90
2019-06-01T14:44:17.585Z,38.10
2019-06-01T14:46:55.080Z,38.40
2019-06-01T14:49:16.407Z,37.40
2019-06-01T14:51:44.956Z,41.50
2019-06-01T14:54:13.524Z,36.60
2019-06-01T14:56:41.993Z,36.70
2019-06-01T14:59:10.498Z,38.70
2019-06-01T15:01:39.073Z,34.40
2019-06-01T15:04:07.659Z,38.40
2019-06-01T15:06:36.225Z,37.70
2019-06-01T15:09:17.605Z,38.90
2019-06-01T15:11:37.713Z,35.30
2019-06-01T15:14:06.200Z,36.80
2019-06-01T15:16:34.687Z,35.10
2019-06-01T15:19:03.265Z,35.60
2019-06-01T15:21:31.754Z,35.60
2019-06-01T15:24:00.348Z,37.80
2019-06-01T15:26:28.960Z,35.80
2019-06-01T15:28:57.452Z,36.90
2019-06-01T15:31:26.005Z,38.10
2019-06-01T15:33:55.228Z,44.60
2019-06-01T15:36:23.802Z,39.30
2019-06-01T15:38:53.540Z,39.10
2019-06-01T15:41:22.248Z,40.00
2019-06-01T15:43:50.943Z,40.00
2019-06-01T15:46:19.474Z,44.60
2019-06-01T15:48:48.044Z,37.30
2019-06-01T15:53:44.764Z,37.60
2019-06-01T15:56:13.305Z,38.70
2019-06-01T15:58:52.240Z,39.10
2019-06-01T16:01:12.062Z,58.80
2019-06-01T16:03:40.570Z,42.10
2019-06-01T16:06:09.036Z,42.10
2019-06-01T16:08:37.617Z,41.10
2019-06-01T16:11:07.447Z,41.20
2019-06-01T16:13:36.008Z,40.40
2019-06-01T16:16:05.252Z,40.30
2019-06-01T16:18:34.025Z,40.40
2019-06-01T16:21:02.573Z,40.90
2019-06-01T16:23:46.190Z,40.70
2019-06-01T16:26:13.255Z,54.00
2019-06-01T16:28:31.877Z,41.10
2019-06-01T16:31:00.556Z,41.70
2019-06-01T16:33:29.131Z,41.50
2019-06-01T16:35:58.737Z,41.60
2019-06-01T16:38:27.470Z,40.70
2019-06-01T16:40:57.022Z,41.20
2019-06-01T16:43:25.789Z,41.90
2019-06-01T16:45:55.550Z,41.40
2019-06-01T16:48:24.224Z,41.40
2019-06-01T16:50:52.781Z,41.90
2019-06-01T16:53:21.401Z,41.40
2019-06-01T16:55:49.992Z,40.40
2019-06-01T16:58:18.544Z,40.70
2019-06-01T17:00:47.118Z,40.50
2019-06-01T17:03:15.682Z,40.80
2019-06-01T17:05:44.731Z,40.30
2019-06-01T17:08:13.702Z,41.30
2019-06-01T17:10:52.092Z,41.20
2019-06-01T17:13:20.733Z,42.20
2019-06-01T17:15:49.369Z,42.00
2019-06-01T17:18:17.849Z,41.80
2019-06-01T17:20:52.151Z,42.00
2019-06-01T17:23:26.812Z,42.90
2019-06-01T17:25:51.090Z,42.80
2019-06-01T17:28:20.704Z,42.80
2019-06-01T17:30:49.466Z,44.60
2019-06-01T17:33:18.197Z,43.50
2019-06-01T17:35:46.687Z,43.50
2019-06-01T17:38:15.229Z,43.70
2019-06-01T17:40:43.805Z,43.40
2019-06-01T17:43:13.205Z,43.80
2019-06-01T17:45:41.967Z,43.90
2019-06-01T17:48:25.809Z,44.30
2019-06-01T17:50:40.972Z,44.00
2019-06-01T17:53:09.512Z,44.70
2019-06-01T17:55:39.338Z,45.30
2019-06-01T17:58:10.065Z,44.90
2019-06-01T18:00:40.733Z,44.80
2019-06-01T18:03:10.243Z,45.10
2019-06-01T18:05:39.088Z,46.10
2019-06-01T18:08:08.168Z,47.30
2019-06-01T18:10:52.570Z,48.60
2019-06-01T18:13:08.667Z,49.00
2019-06-01T18:15:37.549Z,49.40
2019-06-01T18:18:06.646Z,49.70
2019-06-01T18:20:35.840Z,50.50
2019-06-01T18:23:07.205Z,50.10
2019-06-01T18:25:35.676Z,50.90
2019-06-01T18:28:04.591Z,51.20
2019-06-01T18:30:33.291Z,51.70
2019-06-01T18:33:02.951Z,51.60
2019-06-01T18:35:32.442Z,52.50
2019-06-01T18:38:00.989Z,52.30
2019-06-01T18:40:29.552Z,57.20
2019-06-01T18:43:00.840Z,54.20
2019-06-01T18:45:29.643Z,55.20
2019-06-01T18:47:58.344Z,55.60
2019-06-01T18:50:26.976Z,60.10
2019-06-01T18:52:55.455Z,54.50
2019-06-01T18:55:27.292Z,55.40
2019-06-01T18:57:57.285Z,55.30
2019-06-01T19:00:25.935Z,55.40
2019-06-01T19:02:54.568Z,55.40
2019-06-01T19:05:23.060Z,57.40
2019-06-01T19:07:51.528Z,56.10
2019-06-01T19:10:21.648Z,56.70
2019-06-01T19:12:50.210Z,57.40
2019-06-01T19:15:26.705Z,58.30
2019-06-01T19:17:49.153Z,66.30
2019-06-01T19:20:17.764Z,59.70
2019-06-01T19:22:46.285Z,61.80
2019-06-01T19:25:16.972Z,60.20
2019-06-01T19:27:45.820Z,62.00
2019-06-01T19:30:17.130Z,63.40
2019-06-01T19:32:45.843Z,65.30
2019-06-01T19:35:15.385Z,65.20
2019-06-01T19:37:44.276Z,66.60
2019-06-01T19:40:13.376Z,68.30
2019-06-01T19:42:42.063Z,68.90
2019-06-01T19:45:23.652Z,69.70
2019-06-01T19:47:41.028Z,67.50
2019-06-01T19:50:10.299Z,69.60
2019-06-01T19:52:38.916Z,70.40
2019-06-01T19:55:08.890Z,71.60
2019-06-01T19:57:37.568Z,72.00
2019-06-01T20:00:08.058Z,73.50
2019-06-01T20:02:36.690Z,72.50
2019-06-01T20:05:06.363Z,73.40
2019-06-01T20:07:34.875Z,73.20
2019-06-01T20:12:33.124Z,75.10
2019-06-01T20:15:01.670Z,76.50
2019-06-01T20:17:30.167Z,76.20
2019-06-01T20:19:58.743Z,77.50
2019-06-01T20:22:27.240Z,77.70
2019-06-01T20:24:55.704Z,79.30
2019-06-01T20:27:24.201Z,80.30
2019-06-01T20:29:54.208Z,81.00
2019-06-01T20:32:22.701Z,80.40
2019-06-01T20:34:51.242Z,81.00
2019-06-01T20:37:20.156Z,80.70
2019-06-01T20:39:48.768Z,79.90
2019-06-01T20:42:26.385Z,80.20
2019-06-01T20:44:47.508Z,80.30
2019-06-01T20:47:16.628Z,80.10
2019-06-01T20:49:45.312Z,80.20
2019-06-01T20:52:14.684Z,79.90
2019-06-01T20:54:43.350Z,80.10
2019-06-01T20:57:13.258Z,80.40
2019-06-01T20:59:41.881Z,80.60
2019-06-01T21:02:10.444Z,81.00
2019-06-01T21:04:38.916Z,81.60
2019-06-01T21:07:07.409Z,81.80
2019-06-01T21:09:44.098Z,81.80
2019-06-01T21:12:13.813Z,82.50
2019-06-01T21:14:42.405Z,83.30
2019-06-01T21:17:10.954Z,84.90
2019-06-01T21:19:39.653Z,85.40
2019-06-01T21:22:08.255Z,85.20
2019-06-01T21:24:36.824Z,85.40
2019-06-01T21:27:05.436Z,86.60
2019-06-01T21:29:33.928Z,86.80
2019-06-01T21:32:02.414Z,87.60
2019-06-01T21:34:30.968Z,87.90
2019-06-01T21:36:59.431Z,87.90
2019-06-01T21:39:30.129Z,99.90
2019-06-01T21:41:58.605Z,99.90
2019-06-01T21:44:27.165Z,99.90
2019-06-01T21:46:55.633Z,99.90
2019-06-01T21:49:24.192Z,99.90
2019-06-01T21:51:53.188Z,89.10
2019-06-01T21:54:22.277Z,89.50
2019-06-01T21:56:50.890Z,89.50
2019-06-01T21:59:20.512Z,89.10
2019-06-01T22:01:49.765Z,88.80
2019-06-01T22:04:18.736Z,88.10
2019-06-01T22:06:47.418Z,88.90
2019-06-01T22:09:17.116Z,89.10
2019-06-01T22:11:45.833Z,89.00
2019-06-01T22:14:14.352Z,89.80
2019-06-01T22:16:42.897Z,89.20
2019-06-01T22:19:11.392Z,89.40
2019-06-01T22:21:39.928Z,89.00
2019-06-01T22:24:08.416Z,90.10
2019-06-01T22:26:36.884Z,90.30
2019-06-01T22:29:05.369Z,90.20
2019-06-01T22:31:33.840Z,90.20
2019-06-01T22:34:02.332Z,90.20
2019-06-01T22:36:31.659Z,90.00
2019-06-01T22:39:00.389Z,90.10
2019-06-01T22:41:28.928Z,90.30
2019-06-01T22:43:57.426Z,90.70
2019-06-01T22:46:26.812Z,91.10
2019-06-01T22:48:55.481Z,91.90
2019-06-01T22:51:24.933Z,92.00
2019-06-01T22:53:53.701Z,91.80
2019-06-01T22:56:23.209Z,91.60
2019-06-01T22:58:52.212Z,94.10
2019-06-01T23:01:21.094Z,97.70
2019-06-01T23:03:49.786Z,93.50
2019-06-01T23:06:18.349Z,95.00
2019-06-01T23:08:46.980Z,91.30
2019-06-01T23:11:15.600Z,91.20
2019-06-01T23:13:53.494Z,90.90
2019-06-01T23:16:14.308Z,91.10
2019-06-01T23:18:42.904Z,91.20
2019-06-01T23:21:11.451Z,92.10
2019-06-01T23:23:40.811Z,92.20
2019-06-01T23:26:09.381Z,91.50
2019-06-01T23:28:38.888Z,97.40
2019-06-01T23:31:07.548Z,95.40
2019-06-01T23:33:36.102Z,93.50
2019-06-01T23:36:04.756Z,91.60
2019-06-01T23:38:33.319Z,97.10
2019-06-01T23:41:01.888Z,96.30
2019-06-01T23:43:30.922Z,97.50
2019-06-01T23:45:59.729Z,91.90
2019-06-01T23:48:29.340Z,91.80
2019-06-01T23:50:58.061Z,92.00
2019-06-01T23:53:27.489Z,92.30
2019-06-01T23:55:56.120Z,92.50
2019-06-01T23:58:25.917Z,92.00
